| time (UTC) | temp F | wind direction | speed MPH | gust MPH | rain 1hr in | rain 24hr in | rain mn in | humidity % | barometer mb |
| 20260902130521 | 72 | 96 | 1.0 | 5.0 | 0.00 | 0.00 | 0.00 | 80 | 1015.3 |
| 20260902130044 | 72 | 181 | 2.0 | 5.0 | 0.00 | 0.00 | 0.00 | 80 | 1015.3 |
| 20260902125524 | 72 | 163 | 1.0 | 4.0 | 0.00 | 0.00 | 0.00 | 81 | 1015.4 |
| 20260902125019 | 72 | 125 | 1.0 | 4.0 | 0.00 | 0.00 | 0.00 | 81 | 1015.4 |
| 20260902124553 | 72 | 117 | 1.0 | 3.0 | 0.00 | 0.00 | 0.00 | 81 | 1015.4 |
| 20260902124023 | 72 | 95 | 1.0 | 3.0 | 0.00 | 0.00 | 0.00 | 81 | 1015.4 |
| 20260902123524 | 71 | 71 | 1.0 | 2.0 | 0.00 | 0.00 | 0.00 | 81 | 1015.5 |
| 20260902123053 | 71 | 80 | 1.0 | 3.0 | 0.00 | 0.00 | 0.00 | 82 | 1015.5 |
| 20260902122521 | 71 | 5 | 0.0 | 3.0 | 0.00 | 0.00 | 0.00 | 82 | 1015.5 |
| 20260902122021 | 71 | 352 | 2.0 | 3.0 | 0.00 | 0.00 | 0.00 | 82 | 1015.8 |
| 20260902121539 | 70 | 76 | 0.0 | 3.0 | 0.00 | 0.00 | 0.00 | 82 | 1015.7 |
| 20260902121017 | 70 | 55 | 1.0 | 3.0 | 0.00 | 0.00 | 0.00 | 82 | 1015.6 |
| 20260902120521 | 70 | 24 | 1.0 | 3.0 | 0.00 | 0.00 | 0.00 | 82 | 1015.8 |
| 20260902120038 | 70 | 74 | 1.0 | 6.0 | 0.00 | 0.00 | 0.00 | 82 | 1015.8 |
| 20260902115521 | 70 | 53 | 3.0 | 7.0 | 0.00 | 0.00 | 0.00 | 82 | 1015.8 |
| 20260902115022 | 70 | 68 | 2.0 | 9.0 | 0.00 | 0.00 | 0.00 | 81 | 1015.7 |
| 20260902114541 | 71 | 30 | 3.0 | 9.0 | 0.00 | 0.00 | 0.00 | 81 | 1015.8 |
| 20260902114017 | 71 | 338 | 4.0 | 9.0 | 0.00 | 0.00 | 0.00 | 80 | 1015.8 |
| 20260902113519 | 71 | 17 | 3.0 | 8.0 | 0.00 | 0.00 | 0.00 | 80 | 1015.6 |
| 20260902113034 | 71 | 15 | 3.0 | 11.0 | 0.00 | 0.00 | 0.00 | 80 | 1015.8 |
| 20260902112519 | 72 | 340 | 3.0 | 11.0 | 0.00 | 0.00 | 0.00 | 80 | 1016.0 |
| 20260902112022 | 72 | 62 | 5.0 | 15.0 | 0.00 | 0.00 | 0.00 | 79 | 1016.1 |
| 20260902111546 | 73 | 13 | 6.0 | 15.0 | 0.00 | 0.00 | 0.00 | 78 | 1016.0 |
| 20260902111020 | 73 | 304 | 6.0 | 15.0 | 0.00 | 0.00 | 0.00 | 78 | 1016.2 |
| 20260902110525 | 74 | 313 | 9.0 | 16.0 | 0.00 | 0.00 | 0.00 | 78 | 1016.1 |
| 20260902110045 | 74 | 352 | 9.0 | 20.0 | 0.00 | 0.00 | 0.00 | 78 | 1015.8 |
| 20260902105524 | 73 | 329 | 10.0 | 22.0 | 0.00 | 0.00 | 0.00 | 80 | 1015.5 |
| 20260902105019 | 72 | 338 | 7.0 | 22.0 | 0.00 | 0.00 | 0.00 | 84 | 1015.9 |
| 20260902104538 | 71 | 328 | 15.0 | 21.0 | 0.00 | 0.00 | 0.00 | 89 | 1016.0 |
| 20260902104018 | 71 | 279 | 0.0 | 2.0 | 0.00 | 0.00 | 0.00 | 89 | 1014.4 |
| 20260902103516 | 71 | 0 | 0.0 | 2.0 | 0.00 | 0.00 | 0.00 | 89 | 1014.4 |
| 20260902103036 | 71 | 0 | 0.0 | 2.0 | 0.00 | 0.00 | 0.00 | 89 | 1014.4 |
| 20260902102519 | 71 | 0 | 1.0 | 2.0 | 0.00 | 0.00 | 0.00 | 89 | 1014.4 |
| 20260902102019 | 71 | 0 | 0.0 | 2.0 | 0.00 | 0.00 | 0.00 | 89 | 1014.4 |
| 20260902101545 | 72 | 279 | 1.0 | 2.0 | 0.00 | 0.00 | 0.00 | 89 | 1014.4 |
| 20260902101018 | 72 | 242 | 1.0 | 2.0 | 0.00 | 0.00 | 0.00 | 88 | 1014.4 |
| 20260902100516 | 72 | 196 | 1.0 | 2.0 | 0.00 | 0.00 | 0.00 | 89 | 1014.3 |
| 20260902100036 | 72 | 185 | 1.0 | 3.0 | 0.00 | 0.00 | 0.00 | 89 | 1014.2 |
| 20260902095517 | 72 | 188 | 1.0 | 3.0 | 0.00 | 0.00 | 0.00 | 89 | 1014.2 |
| 20260902095018 | 72 | 153 | 1.0 | 3.0 | 0.00 | 0.00 | 0.00 | 89 | 1014.3 |
| 20260902094540 | 72 | 192 | 1.0 | 3.0 | 0.00 | 0.00 | 0.00 | 89 | 1014.2 |
| 20260902094021 | 72 | 173 | 1.0 | 3.0 | 0.00 | 0.00 | 0.00 | 89 | 1014.4 |
| 20260902093519 | 72 | 182 | 1.0 | 3.0 | 0.00 | 0.00 | 0.00 | 88 | 1014.4 |
| 20260902093037 | 72 | 0 | 0.0 | 3.0 | 0.00 | 0.00 | 0.00 | 88 | 1014.5 |
| 20260902092520 | 72 | 167 | 1.0 | 3.0 | 0.00 | 0.00 | 0.00 | 87 | 1014.6 |
| 20260902092019 | 72 | 195 | 1.0 | 3.0 | 0.00 | 0.00 | 0.00 | 87 | 1014.6 |
| 20260902091537 | 72 | 165 | 2.0 | 3.0 | 0.00 | 0.00 | 0.00 | 87 | 1014.7 |
| 20260902091024 | 73 | 111 | 0.0 | 3.0 | 0.00 | 0.00 | 0.00 | 85 | 1014.7 |
| 20260902090516 | 73 | 0 | 0.0 | 4.0 | 0.00 | 0.00 | 0.00 | 84 | 1014.6 |
| 20260902090041 | 74 | 347 | 1.0 | 5.0 | 0.00 | 0.00 | 0.00 | 84 | 1014.9 |
| 20260902085517 | 74 | 9 | 2.0 | 5.0 | 0.00 | 0.00 | 0.00 | 85 | 1014.9 |
| 20260902085016 | 74 | 331 | 1.0 | 4.0 | 0.00 | 0.00 | 0.00 | 86 | 1014.9 |
| 20260902084547 | 73 | 316 | 2.0 | 10.0 | 0.00 | 0.00 | 0.00 | 87 | 1014.9 |
| 20260902084018 | 73 | 352 | 2.0 | 10.0 | 0.00 | 0.00 | 0.00 | 89 | 1015.0 |
| 20260902083520 | 72 | 323 | 6.0 | 9.0 | 0.00 | 0.00 | 0.00 | 90 | 1015.2 |
| 20260902083041 | 72 | 336 | 0.0 | 2.0 | 0.00 | 0.00 | 0.00 | 90 | 1014.6 |
| 20260902082518 | 72 | 0 | 0.0 | 2.0 | 0.00 | 0.00 | 0.00 | 90 | 1014.4 |
| 20260902082016 | 72 | 0 | 0.0 | 2.0 | 0.00 | 0.00 | 0.00 | 90 | 1014.3 |
| 20260902081534 | 72 | 200 | 0.0 | 1.0 | 0.00 | 0.00 | 0.00 | 90 | 1014.5 |
| 20260902081016 | 72 | 0 | 0.0 | 0.0 | 0.00 | 0.00 | 0.00 | 90 | 1014.3 |
| 20260902080518 | 72 | 0 | 0.0 | 2.0 | 0.00 | 0.00 | 0.00 | 89 | 1014.1 |
| 20260902080040 | 73 | 0 | 0.0 | 2.0 | 0.00 | 0.00 | 0.00 | 89 | 1014.3 |
| 20260902075520 | 73 | 0 | 0.0 | 2.0 | 0.00 | 0.00 | 0.00 | 89 | 1014.2 |
| 20260902075019 | 73 | 199 | 1.0 | 2.0 | 0.00 | 0.00 | 0.00 | 89 | 1014.3 |
| 20260902074535 | 73 | 215 | 1.0 | 2.0 | 0.00 | 0.00 | 0.00 | 89 | 1014.2 |
| 20260902074021 | 73 | 288 | 1.0 | 2.0 | 0.00 | 0.00 | 0.00 | 89 | 1014.2 |
| 20260902073527 | 73 | 337 | 1.0 | 2.0 | 0.00 | 0.00 | 0.00 | 88 | 1014.2 |
| 20260902073038 | 73 | 291 | 1.0 | 2.0 | 0.00 | 0.00 | 0.00 | 87 | 1014.1 |
| 20260902072520 | 74 | 232 | 1.0 | 2.0 | 0.00 | 0.00 | 0.00 | 87 | 1014.1 |
| 20260902072018 | 73 | 196 | 1.0 | 2.0 | 0.00 | 0.00 | 0.00 | 87 | 1014.0 |
| 20260902071541 | 74 | 171 | 1.0 | 2.0 | 0.00 | 0.00 | 0.00 | 86 | 1014.0 |
| 20260902071017 | 74 | 0 | 0.0 | 2.0 | 0.00 | 0.00 | 0.00 | 85 | 1014.2 |
| 20260902070520 | 74 | 268 | 1.0 | 2.0 | 0.00 | 0.00 | 0.00 | 84 | 1014.4 |
| 20260902070043 | 75 | 292 | 1.0 | 2.0 | 0.00 | 0.00 | 0.00 | 84 | 1014.5 |
| 20260902065518 | 75 | 293 | 1.0 | 4.0 | 0.00 | 0.00 | 0.00 | 84 | 1014.5 |
| 20260902065020 | 75 | 306 | 1.0 | 8.0 | 0.00 | 0.00 | 0.00 | 83 | 1014.4 |
| 20260902064543 | 75 | 324 | 3.0 | 8.0 | 0.00 | 0.00 | 0.00 | 84 | 1014.5 |
| 20260902064018 | 75 | 339 | 4.0 | 8.0 | 0.00 | 0.00 | 0.00 | 83 | 1014.7 |
| 20260902063524 | 76 | 326 | 4.0 | 8.0 | 0.00 | 0.00 | 0.00 | 83 | 1014.8 |
| 20260902063036 | 76 | 308 | 1.0 | 8.0 | 0.00 | 0.00 | 0.00 | 83 | 1014.8 |
| 20260902062518 | 75 | 304 | 5.0 | 8.0 | 0.00 | 0.00 | 0.00 | 84 | 1014.9 |
| 20260902062018 | 75 | 327 | 2.0 | 4.0 | 0.00 | 0.00 | 0.00 | 85 | 1014.9 |
| 20260902061548 | 75 | 28 | 1.0 | 2.0 | 0.00 | 0.00 | 0.00 | 84 | 1014.7 |
| 20260902061022 | 76 | 228 | 0.0 | 3.0 | 0.00 | 0.00 | 0.00 | 83 | 1014.5 |
| 20260902060527 | 76 | 204 | 1.0 | 6.0 | 0.00 | 0.00 | 0.00 | 83 | 1014.5 |
| 20260902060052 | 76 | 268 | 0.0 | 6.0 | 0.00 | 0.00 | 0.00 | 82 | 1014.7 |
| 20260902055525 | 76 | 327 | 3.0 | 13.0 | 0.00 | 0.00 | 0.00 | 82 | 1015.0 |
| 20260902055020 | 77 | 338 | 4.0 | 19.0 | 0.00 | 0.00 | 0.00 | 81 | 1015.0 |
| 20260902054545 | 76 | 304 | 7.0 | 19.0 | 0.00 | 0.00 | 0.00 | 83 | 1015.3 |
| 20260902054019 | 75 | 340 | 9.0 | 15.0 | 0.00 | 0.00 | 0.00 | 85 | 1015.3 |
| 20260902053519 | 74 | 326 | 2.0 | 4.0 | 0.00 | 0.00 | 0.00 | 85 | 1015.2 |
| 20260902053041 | 74 | 269 | 1.0 | 2.0 | 0.00 | 0.00 | 0.00 | 85 | 1014.9 |
| 20260902052527 | 74 | 307 | 1.0 | 2.0 | 0.00 | 0.00 | 0.00 | 85 | 1014.7 |
| 20260902052019 | 74 | 293 | 0.0 | 2.0 | 0.00 | 0.00 | 0.00 | 85 | 1014.5 |
| 20260902051539 | 74 | 271 | 1.0 | 2.0 | 0.00 | 0.00 | 0.00 | 85 | 1014.4 |
| 20260902051018 | 74 | 298 | 0.0 | 2.0 | 0.00 | 0.00 | 0.00 | 85 | 1014.3 |
| 20260902050524 | 74 | 0 | 0.0 | 2.0 | 0.00 | 0.00 | 0.00 | 85 | 1014.2 |
| 20260902050040 | 74 | 298 | 0.0 | 1.0 | 0.00 | 0.00 | 0.00 | 86 | 1014.4 |
| 20260902045525 | 74 | 298 | 1.0 | 2.0 | 0.00 | 0.00 | 0.00 | 86 | 1014.6 |
| 20260902045019 | 74 | 0 | 0.0 | 2.0 | 0.00 | 0.00 | 0.00 | 86 | 1014.3 |
| 20260902044543 | 74 | 277 | 0.0 | 2.0 | 0.00 | 0.00 | 0.00 | 86 | 1014.1 |
| 20260902044020 | 74 | 0 | 0.0 | 1.0 | 0.00 | 0.00 | 0.00 | 85 | 1014.2 |
| 20260902043519 | 74 | 0 | 0.0 | 1.0 | 0.00 | 0.00 | 0.00 | 85 | 1014.2 |
| 20260902043044 | 74 | 277 | 1.0 | 1.0 | 0.00 | 0.00 | 0.00 | 85 | 1014.4 |
| 20260902042521 | 74 | 314 | 1.0 | 2.0 | 0.00 | 0.00 | 0.00 | 85 | 1014.4 |
| 20260902042021 | 74 | 0 | 0.0 | 2.0 | 0.00 | 0.00 | 0.00 | 84 | 1014.5 |
| 20260902041551 | 74 | 270 | 0.0 | 2.0 | 0.00 | 0.00 | 0.00 | 84 | 1014.5 |
| 20260902041022 | 75 | 242 | 0.0 | 1.0 | 0.00 | 0.00 | 0.00 | 84 | 1014.5 |
| 20260902040522 | 75 | 266 | 0.0 | 1.0 | 0.00 | 0.00 | 0.00 | 84 | 1014.5 |
| 20260902040039 | 74 | 266 | 0.0 | 2.0 | 0.00 | 0.00 | 0.00 | 84 | 1014.4 |
| 20260902035524 | 74 | 266 | 0.0 | 2.0 | 0.00 | 0.00 | 0.00 | 84 | 1014.4 |
| 20260902035019 | 75 | 0 | 0.0 | 2.0 | 0.00 | 0.00 | 0.00 | 83 | 1014.2 |
| 20260902034537 | 75 | 277 | 1.0 | 2.0 | 0.00 | 0.00 | 0.00 | 84 | 1014.4 |
| 20260902034019 | 75 | 121 | 0.0 | 1.0 | 0.00 | 0.00 | 0.00 | 85 | 1014.4 |
| 20260902033521 | 75 | 0 | 0.0 | 0.0 | 0.00 | 0.00 | 0.00 | 85 | 1014.3 |
| 20260902033039 | 75 | 0 | 0.0 | 0.0 | 0.00 | 0.00 | 0.00 | 83 | 1014.2 |
| 20260902032520 | 75 | 0 | 0.0 | 0.0 | 0.00 | 0.00 | 0.00 | 83 | 1014.3 |
| 20260902032021 | 75 | 0 | 0.0 | 0.0 | 0.00 | 0.00 | 0.00 | 83 | 1014.2 |
| 20260902031541 | 75 | 0 | 0.0 | 0.0 | 0.00 | 0.00 | 0.00 | 83 | 1014.2 |
| 20260902031017 | 75 | 0 | 0.0 | 2.0 | 0.00 | 0.00 | 0.00 | 83 | 1014.1 |
| 20260902030524 | 75 | 0 | 0.0 | 2.0 | 0.00 | 0.00 | 0.00 | 82 | 1014.3 |
| 20260902030039 | 75 | 0 | 1.0 | 2.0 | 0.00 | 0.00 | 0.00 | 82 | 1014.2 |
| 20260902025520 | 75 | 31 | 0.0 | 2.0 | 0.00 | 0.00 | 0.00 | 82 | 1014.2 |
| 20260902025020 | 76 | 349 | 0.0 | 1.0 | 0.00 | 0.00 | 0.00 | 80 | 1014.2 |
| 20260902024544 | 76 | 0 | 0.0 | 2.0 | 0.00 | 0.00 | 0.00 | 80 | 1014.2 |
| 20260902024022 | 76 | 349 | 0.0 | 2.0 | 0.00 | 0.00 | 0.00 | 79 | 1014.2 |
| 20260902023520 | 76 | 0 | 0.0 | 3.0 | 0.00 | 0.00 | 0.00 | 79 | 1014.1 |
| 20260902023040 | 76 | 0 | 0.0 | 4.0 | 0.00 | 0.00 | 0.00 | 80 | 1014.1 |
| 20260902022521 | 76 | 171 | 2.0 | 4.0 | 0.00 | 0.00 | 0.00 | 80 | 1013.9 |
| 20260902022022 | 76 | 211 | 0.0 | 1.0 | 0.00 | 0.00 | 0.00 | 80 | 1014.0 |
| 20260902021539 | 76 | 0 | 0.0 | 1.0 | 0.00 | 0.00 | 0.00 | 79 | 1014.2 |
| 20260902021021 | 77 | 0 | 0.0 | 1.0 | 0.00 | 0.00 | 0.00 | 77 | 1014.3 |
| 20260902020523 | 77 | 0 | 0.0 | 2.0 | 0.00 | 0.00 | 0.00 | 78 | 1014.4 |
| 20260902020053 | 78 | 269 | 0.0 | 2.0 | 0.00 | 0.00 | 0.00 | 76 | 1014.4 |
| 20260902015521 | 78 | 264 | 0.0 | 3.0 | 0.00 | 0.00 | 0.00 | 75 | 1014.5 |
| 20260902015019 | 78 | 224 | 1.0 | 3.0 | 0.00 | 0.00 | 0.00 | 74 | 1014.4 |
| 20260902014537 | 78 | 184 | 1.0 | 3.0 | 0.00 | 0.00 | 0.00 | 75 | 1014.4 |
| 20260902014021 | 78 | 238 | 1.0 | 3.0 | 0.00 | 0.00 | 0.00 | 74 | 1014.4 |
| 20260902013523 | 79 | 281 | 1.0 | 3.0 | 0.00 | 0.00 | 0.00 | 74 | 1014.5 |
| 20260902013040 | 79 | 228 | 1.0 | 3.0 | 0.00 | 0.00 | 0.00 | 73 | 1014.3 |
| 20260902012519 | 79 | 207 | 1.0 | 2.0 | 0.00 | 0.00 | 0.00 | 72 | 1014.2 |
| 20260902012018 | 79 | 266 | 1.0 | 2.0 | 0.00 | 0.00 | 0.00 | 72 | 1014.2 |
| 20260902011539 | 79 | 242 | 1.0 | 2.0 | 0.00 | 0.00 | 0.00 | 71 | 1014.0 |
| 20260902011022 | 80 | 242 | 1.0 | 3.0 | 0.00 | 0.00 | 0.00 | 72 | 1014.0 |
| 20260902010522 | 80 | 257 | 1.0 | 4.0 | 0.00 | 0.00 | 0.00 | 71 | 1013.9 |
| 20260902010040 | 80 | 258 | 2.0 | 4.0 | 0.00 | 0.00 | 0.00 | 70 | 1013.9 |
| 20260902005523 | 80 | 244 | 2.0 | 3.0 | 0.00 | 0.00 | 0.00 | 71 | 1013.9 |
| 20260902005019 | 80 | 242 | 2.0 | 3.0 | 0.00 | 0.00 | 0.00 | 70 | 1013.8 |
| 20260902004543 | 81 | 251 | 1.0 | 4.0 | 0.00 | 0.00 | 0.00 | 69 | 1013.7 |
| 20260902004031 | 81 | 268 | 1.0 | 4.0 | 0.00 | 0.00 | 0.00 | 69 | 1013.7 |
| 20260902003520 | 81 | 242 | 1.0 | 4.0 | 0.00 | 0.00 | 0.00 | 68 | 1013.7 |
| 20260902003041 | 82 | 220 | 2.0 | 6.0 | 0.00 | 0.00 | 0.00 | 68 | 1013.7 |
| 20260902002520 | 82 | 192 | 2.0 | 6.0 | 0.00 | 0.00 | 0.00 | 69 | 1013.8 |
| 20260902002022 | 82 | 235 | 2.0 | 4.0 | 0.00 | 0.00 | 0.00 | 70 | 1013.8 |
| 20260902001538 | 82 | 204 | 2.0 | 4.0 | 0.00 | 0.00 | 0.00 | 70 | 1013.8 |
| 20260902001021 | 82 | 227 | 1.0 | 4.0 | 0.00 | 0.00 | 0.00 | 71 | 1013.7 |
| 20260902000521 | 82 | 248 | 2.0 | 5.0 | 0.00 | 0.00 | 0.00 | 73 | 1013.9 |
| 20260902000044 | 83 | 247 | 1.0 | 5.0 | 0.00 | 0.00 | 0.00 | 71 | 1013.8 |
| 20260901235520 | 83 | 261 | 2.0 | 6.0 | 0.00 | 0.00 | 0.00 | 71 | 1013.8 |
| 20260901235020 | 83 | 286 | 3.0 | 8.0 | 0.00 | 0.00 | 0.00 | 73 | 1013.8 |
| 20260901234545 | 83 | 295 | 2.0 | 8.0 | 0.00 | 0.00 | 0.00 | 75 | 1013.8 |
| 20260901234020 | 83 | 243 | 2.0 | 7.0 | 0.00 | 0.00 | 0.00 | 77 | 1013.9 |
| 20260901233524 | 83 | 249 | 2.0 | 9.0 | 0.00 | 0.00 | 0.00 | 77 | 1013.8 |
| 20260901233045 | 84 | 243 | 4.0 | 9.0 | 0.00 | 0.00 | 0.00 | 78 | 1013.9 |
| 20260901232518 | 84 | 235 | 2.0 | 10.0 | 0.00 | 0.00 | 0.00 | 78 | 1013.9 |
| 20260901232019 | 84 | 211 | 4.0 | 10.0 | 0.00 | 0.00 | 0.00 | 78 | 1013.9 |
| 20260901231541 | 84 | 257 | 2.0 | 7.0 | 0.00 | 0.00 | 0.00 | 78 | 1013.8 |
| 20260901231018 | 84 | 246 | 2.0 | 7.0 | 0.00 | 0.00 | 0.00 | 77 | 1013.5 |
| 20260901230517 | 84 | 246 | 3.0 | 7.0 | 0.00 | 0.00 | 0.00 | 77 | 1013.3 |
| 20260901230048 | 84 | 169 | 2.0 | 5.0 | 0.00 | 0.00 | 0.00 | 77 | 1013.2 |
| 20260901225520 | 84 | 208 | 3.0 | 5.0 | 0.00 | 0.00 | 0.00 | 77 | 1013.3 |
| 20260901225021 | 84 | 208 | 2.0 | 7.0 | 0.00 | 0.00 | 0.00 | 76 | 1013.3 |
| 20260901224538 | 85 | 244 | 2.0 | 7.0 | 0.00 | 0.00 | 0.00 | 76 | 1013.6 |
| 20260901224020 | 85 | 305 | 3.0 | 8.0 | 0.00 | 0.00 | 0.00 | 76 | 1013.9 |
| 20260901223520 | 85 | 239 | 3.0 | 8.0 | 0.00 | 0.00 | 0.00 | 76 | 1014.0 |
| 20260901223053 | 85 | 281 | 4.0 | 10.0 | 0.00 | 0.00 | 0.00 | 75 | 1014.1 |
| 20260901222518 | 86 | 202 | 5.0 | 12.0 | 0.00 | 0.00 | 0.00 | 74 | 1014.0 |
| 20260901222016 | 86 | 229 | 4.0 | 12.0 | 0.00 | 0.00 | 0.00 | 74 | 1013.9 |
| 20260901221542 | 86 | 294 | 5.0 | 10.0 | 0.00 | 0.00 | 0.00 | 74 | 1014.0 |
| 20260901221016 | 87 | 273 | 4.0 | 13.0 | 0.00 | 0.00 | 0.00 | 72 | 1014.0 |
| 20260901220524 | 87 | 294 | 4.0 | 13.0 | 0.00 | 0.00 | 0.00 | 72 | 1013.9 |
| 20260901220048 | 87 | 194 | 7.0 | 12.0 | 0.00 | 0.00 | 0.00 | 72 | 1014.0 |
| 20260901215521 | 87 | 265 | 6.0 | 10.0 | 0.00 | 0.00 | 0.00 | 72 | 1013.9 |
| 20260901215021 | 88 | 236 | 5.0 | 12.0 | 0.00 | 0.00 | 0.00 | 71 | 1013.9 |
| 20260901214539 | 88 | 252 | 6.0 | 14.0 | 0.00 | 0.00 | 0.00 | 71 | 1013.9 |
| 20260901214021 | 88 | 161 | 7.0 | 14.0 | 0.00 | 0.00 | 0.00 | 71 | 1013.8 |
| 20260901213516 | 88 | 223 | 5.0 | 12.0 | 0.00 | 0.00 | 0.00 | 71 | 1013.8 |
| 20260901213036 | 88 | 263 | 7.0 | 11.0 | 0.00 | 0.00 | 0.00 | 71 | 1013.9 |
| 20260901212516 | 88 | 244 | 6.0 | 9.0 | 0.00 | 0.00 | 0.00 | 70 | 1013.8 |
| 20260901212025 | 88 | 269 | 4.0 | 10.0 | 0.00 | 0.00 | 0.00 | 69 | 1013.8 |
| 20260901211536 | 88 | 225 | 5.0 | 11.0 | 0.00 | 0.00 | 0.00 | 69 | 1013.9 |
| 20260901211017 | 88 | 199 | 6.0 | 11.0 | 0.00 | 0.00 | 0.00 | 69 | 1013.8 |
| 20260901210522 | 88 | 257 | 4.0 | 11.0 | 0.00 | 0.00 | 0.00 | 70 | 1013.8 |
| 20260901210043 | 87 | 222 | 5.0 | 9.0 | 0.00 | 0.00 | 0.00 | 70 | 1013.8 |
| 20260901205521 | 88 | 275 | 4.0 | 9.0 | 0.00 | 0.00 | 0.00 | 69 | 1013.9 |
| 20260901205021 | 87 | 207 | 5.0 | 12.0 | 0.00 | 0.00 | 0.00 | 68 | 1013.9 |
| 20260901204541 | 88 | 243 | 3.0 | 12.0 | 0.00 | 0.00 | 0.00 | 68 | 1013.9 |
| 20260901204016 | 87 | 286 | 6.0 | 12.0 | 0.00 | 0.00 | 0.00 | 68 | 1014.0 |
| 20260901203520 | 88 | 246 | 3.0 | 10.0 | 0.00 | 0.00 | 0.00 | 66 | 1014.1 |
| 20260901203046 | 88 | 304 | 5.0 | 14.0 | 0.00 | 0.00 | 0.00 | 65 | 1014.1 |
| 20260901202519 | 89 | 229 | 7.0 | 14.0 | 0.00 | 0.00 | 0.00 | 64 | 1014.1 |
| 20260901202017 | 89 | 199 | 6.0 | 10.0 | 0.00 | 0.00 | 0.00 | 65 | 1014.1 |
| 20260901201535 | 88 | 254 | 5.0 | 11.0 | 0.00 | 0.00 | 0.00 | 66 | 1014.2 |
| 20260901201015 | 88 | 281 | 5.0 | 11.0 | 0.00 | 0.00 | 0.00 | 67 | 1014.3 |
| 20260901200521 | 89 | 302 | 5.0 | 11.0 | 0.00 | 0.00 | 0.00 | 66 | 1014.2 |
| 20260901200047 | 89 | 269 | 4.0 | 11.0 | 0.00 | 0.00 | 0.00 | 66 | 1014.2 |
| 20260901195518 | 88 | 200 | 5.0 | 11.0 | 0.00 | 0.00 | 0.00 | 69 | 1014.1 |
| 20260901195021 | 88 | 236 | 4.0 | 11.0 | 0.00 | 0.00 | 0.00 | 66 | 1014.2 |
| 20260901194541 | 90 | 221 | 4.0 | 11.0 | 0.00 | 0.00 | 0.00 | 65 | 1014.2 |
| 20260901194022 | 89 | 244 | 4.0 | 10.0 | 0.00 | 0.00 | 0.00 | 65 | 1014.1 |
| 20260901193519 | 89 | 210 | 5.0 | 13.0 | 0.00 | 0.00 | 0.00 | 66 | 1014.2 |
| 20260901193038 | 90 | 228 | 7.0 | 13.0 | 0.00 | 0.00 | 0.00 | 62 | 1014.3 |
| 20260901192518 | 89 | 209 | 4.0 | 9.0 | 0.00 | 0.00 | 0.00 | 65 | 1014.3 |
| 20260901192016 | 89 | 268 | 4.0 | 8.0 | 0.00 | 0.00 | 0.00 | 65 | 1014.3 |
| 20260901191537 | 89 | 242 | 3.0 | 10.0 | 0.00 | 0.00 | 0.00 | 66 | 1014.3 |
| 20260901191017 | 89 | 288 | 4.0 | 11.0 | 0.00 | 0.00 | 0.00 | 64 | 1014.4 |
| 20260901190521 | 89 | 292 | 4.0 | 11.0 | 0.00 | 0.00 | 0.00 | 63 | 1014.4 |
| 20260901190054 | 90 | 282 | 5.0 | 11.0 | 0.00 | 0.00 | 0.00 | 62 | 1014.2 |
| 20260901185521 | 91 | 240 | 3.0 | 10.0 | 0.00 | 0.00 | 0.00 | 61 | 1014.4 |
| 20260901185021 | 89 | 298 | 5.0 | 11.0 | 0.00 | 0.00 | 0.00 | 63 | 1014.4 |
| 20260901184542 | 90 | 231 | 5.0 | 11.0 | 0.00 | 0.00 | 0.00 | 61 | 1014.3 |
| 20260901184021 | 90 | 286 | 2.0 | 11.0 | 0.00 | 0.00 | 0.00 | 62 | 1014.4 |
| 20260901183519 | 90 | 242 | 4.0 | 11.0 | 0.00 | 0.00 | 0.00 | 65 | 1014.4 |
| 20260901183040 | 88 | 269 | 5.0 | 10.0 | 0.00 | 0.00 | 0.00 | 65 | 1014.3 |
| 20260901182518 | 88 | 258 | 5.0 | 10.0 | 0.00 | 0.00 | 0.00 | 67 | 1014.4 |
| 20260901182018 | 88 | 243 | 5.0 | 9.0 | 0.00 | 0.00 | 0.00 | 67 | 1014.5 |
| 20260901181542 | 89 | 221 | 4.0 | 8.0 | 0.00 | 0.00 | 0.00 | 65 | 1014.5 |
| 20260901181019 | 88 | 173 | 2.0 | 9.0 | 0.00 | 0.00 | 0.00 | 68 | 1014.4 |
| 20260901180524 | 87 | 233 | 6.0 | 9.0 | 0.00 | 0.00 | 0.00 | 67 | 1014.5 |
| 20260901180041 | 87 | 298 | 1.0 | 8.0 | 0.00 | 0.00 | 0.00 | 70 | 1014.4 |
| 20260901175522 | 87 | 299 | 2.0 | 8.0 | 0.00 | 0.00 | 0.00 | 68 | 1014.5 |
| 20260901175018 | 87 | 319 | 2.0 | 7.0 | 0.00 | 0.00 | 0.00 | 71 | 1014.5 |
| 20260901174538 | 86 | 261 | 4.0 | 8.0 | 0.00 | 0.00 | 0.00 | 70 | 1014.6 |
| 20260901174019 | 87 | 275 | 2.0 | 11.0 | 0.00 | 0.00 | 0.00 | 68 | 1014.6 |
| 20260901173521 | 88 | 239 | 5.0 | 11.0 | 0.00 | 0.00 | 0.00 | 68 | 1014.7 |
| 20260901173037 | 88 | 161 | 3.0 | 14.0 | 0.00 | 0.00 | 0.00 | 70 | 1014.7 |
| 20260901172521 | 86 | 232 | 6.0 | 14.0 | 0.00 | 0.00 | 0.00 | 71 | 1014.7 |
| 20260901172020 | 87 | 270 | 4.0 | 8.0 | 0.00 | 0.00 | 0.00 | 70 | 1014.8 |
| 20260901171543 | 86 | 187 | 3.0 | 9.0 | 0.00 | 0.00 | 0.00 | 72 | 1014.8 |
| 20260901171018 | 86 | 270 | 4.0 | 9.0 | 0.00 | 0.00 | 0.00 | 73 | 1014.9 |
| 20260901170516 | 86 | 223 | 3.0 | 10.0 | 0.00 | 0.00 | 0.00 | 73 | 1015.0 |
| 20260901170039 | 86 | 309 | 3.0 | 10.0 | 0.00 | 0.00 | 0.00 | 74 | 1015.1 |
| 20260901165521 | 86 | 304 | 5.0 | 10.0 | 0.00 | 0.00 | 0.00 | 74 | 1015.2 |
| 20260901165025 | 86 | 146 | 3.0 | 7.0 | 0.00 | 0.00 | 0.00 | 74 | 1015.1 |
| 20260901164543 | 85 | 205 | 4.0 | 7.0 | 0.00 | 0.00 | 0.00 | 75 | 1015.3 |
| 20260901164021 | 85 | 245 | 2.0 | 7.0 | 0.00 | 0.00 | 0.00 | 76 | 1015.3 |
| 20260901163517 | 85 | 196 | 4.0 | 6.0 | 0.00 | 0.00 | 0.00 | 76 | 1015.3 |
| 20260901163036 | 85 | 229 | 1.0 | 7.0 | 0.00 | 0.00 | 0.00 | 77 | 1015.3 |
| 20260901162518 | 84 | 281 | 3.0 | 5.0 | 0.00 | 0.00 | 0.00 | 78 | 1015.3 |
| 20260901162019 | 84 | 240 | 2.0 | 5.0 | 0.00 | 0.00 | 0.00 | 78 | 1015.3 |
| 20260901161540 | 85 | 262 | 1.0 | 4.0 | 0.00 | 0.00 | 0.00 | 77 | 1015.2 |
| 20260901161016 | 85 | 171 | 2.0 | 5.0 | 0.00 | 0.00 | 0.00 | 77 | 1015.1 |
| 20260901160521 | 84 | 211 | 3.0 | 5.0 | 0.00 | 0.00 | 0.00 | 78 | 1015.1 |
| 20260901160038 | 84 | 252 | 3.0 | 5.0 | 0.00 | 0.00 | 0.00 | 79 | 1015.0 |
| 20260901155517 | 84 | 318 | 2.0 | 3.0 | 0.00 | 0.00 | 0.00 | 79 | 1015.0 |
| 20260901155018 | 83 | 351 | 1.0 | 4.0 | 0.00 | 0.00 | 0.00 | 80 | 1015.0 |
| 20260901154537 | 83 | 283 | 2.0 | 4.0 | 0.00 | 0.00 | 0.00 | 81 | 1015.2 |
| 20260901154021 | 83 | 248 | 1.0 | 4.0 | 0.00 | 0.00 | 0.00 | 82 | 1015.2 |
| 20260901153523 | 82 | 322 | 2.0 | 4.0 | 0.00 | 0.00 | 0.00 | 82 | 1015.2 |
| 20260901153043 | 82 | 321 | 2.0 | 4.0 | 0.00 | 0.00 | 0.00 | 83 | 1015.2 |
| 20260901152517 | 82 | 308 | 3.0 | 4.0 | 0.00 | 0.00 | 0.00 | 83 | 1015.3 |
| 20260901152018 | 82 | 288 | 2.0 | 4.0 | 0.00 | 0.00 | 0.00 | 84 | 1015.2 |
| 20260901151538 | 81 | 281 | 2.0 | 4.0 | 0.00 | 0.00 | 0.00 | 84 | 1015.2 |
| 20260901151017 | 81 | 270 | 3.0 | 4.0 | 0.00 | 0.00 | 0.00 | 84 | 1015.2 |
| 20260901150519 | 81 | 327 | 2.0 | 3.0 | 0.00 | 0.00 | 0.00 | 84 | 1015.2 |
| 20260901150042 | 81 | 268 | 1.0 | 3.0 | 0.00 | 0.00 | 0.00 | 84 | 1015.2 |
| 20260901145519 | 81 | 306 | 1.0 | 3.0 | 0.00 | 0.00 | 0.00 | 86 | 1015.2 |
| 20260901145021 | 80 | 249 | 1.0 | 3.0 | 0.00 | 0.00 | 0.00 | 87 | 1015.1 |
| 20260901144538 | 80 | 301 | 1.0 | 3.0 | 0.00 | 0.00 | 0.00 | 87 | 1015.2 |
| 20260901144026 | 80 | 277 | 2.0 | 4.0 | 0.00 | 0.00 | 0.00 | 87 | 1015.3 |
| 20260901143522 | 79 | 248 | 2.0 | 4.0 | 0.00 | 0.00 | 0.00 | 86 | 1015.3 |
| 20260901143041 | 80 | 306 | 1.0 | 3.0 | 0.00 | 0.00 | 0.00 | 87 | 1015.3 |
| 20260901142612 | 79 | 252 | 1.0 | 3.0 | 0.00 | 0.00 | 0.00 | 87 | 1015.3 |
| 20260901142024 | 79 | 265 | 2.0 | 3.0 | 0.00 | 0.00 | 0.00 | 87 | 1015.2 |
| 20260901141539 | 79 | 315 | 2.0 | 3.0 | 0.00 | 0.00 | 0.00 | 87 | 1015.2 |
| 20260901141026 | 79 | 289 | 1.0 | 4.0 | 0.00 | 0.00 | 0.00 | 87 | 1015.1 |
| 20260901140523 | 79 | 302 | 2.0 | 4.0 | 0.00 | 0.00 | 0.00 | 88 | 1015.2 |
| 20260901140042 | 78 | 302 | 1.0 | 3.0 | 0.00 | 0.00 | 0.00 | 88 | 1015.1 |
| 20260901135520 | 78 | 283 | 1.0 | 3.0 | 0.00 | 0.00 | 0.00 | 89 | 1015.3 |
| 20260901135019 | 78 | 265 | 1.0 | 4.0 | 0.00 | 0.00 | 0.00 | 89 | 1015.3 |
| 20260901134541 | 77 | 248 | 3.0 | 4.0 | 0.00 | 0.00 | 0.00 | 90 | 1015.2 |
| 20260901134019 | 77 | 265 | 2.0 | 4.0 | 0.00 | 0.00 | 0.00 | 90 | 1015.3 |
| 20260901133522 | 77 | 313 | 2.0 | 6.0 | 0.00 | 0.00 | 0.00 | 91 | 1015.2 |
| 20260901133052 | 76 | 299 | 2.0 | 6.0 | 0.00 | 0.00 | 0.00 | 91 | 1015.2 |
| 20260901132524 | 76 | 261 | 3.0 | 6.0 | 0.00 | 0.00 | 0.00 | 92 | 1015.2 |
| 20260901132021 | 75 | 271 | 2.0 | 6.0 | 0.00 | 0.00 | 0.00 | 92 | 1015.2 |
| 20260901131543 | 75 | 286 | 3.0 | 6.0 | 0.00 | 0.00 | 0.00 | 92 | 1015.1 |
| 20260901131021 | 75 | 225 | 2.0 | 4.0 | 0.00 | 0.00 | 0.00 | 93 | 1015.1 |